createdAt,value
2017-10-12T00:00:29.610Z,7.00
2017-10-12T00:02:58.092Z,8.67
2017-10-12T00:05:26.552Z,8.70
2017-10-12T00:07:55.046Z,9.83
2017-10-12T00:10:23.524Z,12.03
2017-10-12T00:12:52.023Z,8.43
2017-10-12T00:15:20.565Z,7.90
2017-10-12T00:17:49.798Z,6.83
2017-10-12T00:20:18.084Z,6.43
2017-10-12T00:22:46.535Z,6.73
2017-10-12T00:25:15.775Z,11.60
2017-10-12T00:27:45.247Z,11.73
2017-10-12T00:30:14.487Z,8.20
2017-10-12T00:32:43.475Z,13.43
2017-10-12T00:35:11.952Z,6.70
2017-10-12T00:37:40.414Z,7.73
2017-10-12T00:40:09.271Z,10.10
2017-10-12T00:42:38.636Z,9.73
2017-10-12T00:45:07.102Z,7.37
2017-10-12T00:47:35.589Z,8.27
2017-10-12T00:50:04.068Z,12.03
2017-10-12T00:52:32.649Z,12.53
2017-10-12T00:55:01.105Z,7.30
2017-10-12T00:57:30.344Z,12.83
2017-10-12T00:59:58.328Z,13.80
2017-10-12T01:02:26.459Z,11.30
2017-10-12T01:04:54.792Z,6.90
2017-10-12T01:07:23.073Z,7.80
2017-10-12T01:09:51.481Z,11.20
2017-10-12T01:12:20.520Z,8.57
2017-10-12T01:14:48.936Z,8.97
2017-10-12T01:17:17.407Z,8.50
2017-10-12T01:19:45.004Z,10.87
2017-10-12T01:22:13.690Z,10.47
2017-10-12T01:24:42.231Z,10.90
2017-10-12T01:27:10.011Z,13.97
2017-10-12T01:29:38.279Z,11.63
2017-10-12T01:32:06.752Z,10.33
2017-10-12T01:34:35.213Z,10.90
2017-10-12T01:37:02.992Z,8.80
2017-10-12T01:39:31.091Z,6.93
2017-10-12T01:41:58.872Z,7.63
2017-10-12T01:44:26.708Z,7.80
2017-10-12T01:46:55.299Z,16.07
2017-10-12T01:49:23.440Z,11.10
2017-10-12T01:51:51.586Z,7.97
2017-10-12T01:54:20.861Z,10.80
2017-10-12T01:56:50.072Z,9.53
2017-10-12T01:59:18.550Z,9.17
2017-10-12T02:01:46.340Z,12.40
2017-10-12T02:04:15.595Z,10.57
2017-10-12T02:06:44.054Z,9.93
2017-10-12T02:09:12.651Z,9.30
2017-10-12T02:11:41.214Z,10.20
2017-10-12T02:14:09.691Z,8.40
2017-10-12T02:16:38.158Z,8.67
2017-10-12T02:19:07.396Z,9.80
2017-10-12T02:21:35.851Z,10.57
2017-10-12T02:24:04.343Z,8.40
2017-10-12T02:26:32.495Z,11.00
2017-10-12T02:29:01.542Z,9.10
2017-10-12T02:31:29.688Z,12.93
2017-10-12T02:33:57.982Z,10.07
2017-10-12T02:36:26.433Z,9.43
2017-10-12T02:38:55.671Z,7.70
2017-10-12T02:41:23.788Z,7.27
2017-10-12T02:43:52.845Z,7.80
2017-10-12T02:46:21.122Z,7.97
2017-10-12T02:48:49.613Z,9.40
2017-10-12T02:51:18.135Z,10.60
2017-10-12T02:53:47.368Z,10.20
2017-10-12T02:56:15.853Z,8.93
2017-10-12T02:58:43.979Z,8.77
2017-10-12T03:01:12.309Z,11.17
2017-10-12T03:03:40.765Z,11.90
2017-10-12T03:06:10.007Z,10.97
2017-10-12T03:08:38.530Z,10.17
2017-10-12T03:11:07.762Z,13.63
2017-10-12T03:13:36.367Z,9.10
2017-10-12T03:16:04.850Z,9.20
2017-10-12T03:18:33.321Z,9.00
2017-10-12T03:21:01.788Z,8.00
2017-10-12T03:23:30.416Z,9.20
2017-10-12T03:25:58.872Z,9.30
2017-10-12T03:28:27.356Z,7.97
2017-10-12T03:30:55.821Z,11.50
2017-10-12T03:33:24.106Z,7.83
2017-10-12T03:35:52.399Z,10.70
2017-10-12T03:38:20.886Z,8.53
2017-10-12T03:40:49.151Z,8.87
2017-10-12T03:43:17.079Z,11.17
2017-10-12T03:45:45.367Z,8.77
2017-10-12T03:48:14.402Z,7.60
2017-10-12T03:50:42.176Z,8.20
2017-10-12T03:53:10.631Z,6.67
2017-10-12T03:55:39.116Z,7.80
2017-10-12T03:58:07.592Z,7.10
2017-10-12T04:00:36.038Z,7.97
2017-10-12T04:03:04.538Z,6.57
2017-10-12T04:05:33.779Z,6.27
2017-10-12T04:08:02.239Z,9.20
2017-10-12T04:10:30.711Z,7.37
2017-10-12T04:12:59.959Z,5.73
2017-10-12T04:15:28.428Z,5.67
2017-10-12T04:17:56.900Z,7.97
2017-10-12T04:20:25.368Z,5.20
2017-10-12T04:22:53.839Z,6.40
2017-10-12T04:25:23.051Z,5.17
2017-10-12T04:27:51.539Z,5.17
2017-10-12T04:30:19.997Z,7.63
2017-10-12T04:32:49.230Z,5.93
2017-10-12T04:35:17.708Z,8.27
2017-10-12T04:37:46.169Z,6.47
2017-10-12T04:40:15.412Z,5.73
2017-10-12T04:42:44.479Z,8.90
2017-10-12T04:45:12.943Z,4.83
2017-10-12T04:47:42.174Z,5.67
2017-10-12T04:50:10.724Z,4.97
2017-10-12T04:52:39.984Z,5.40
2017-10-12T04:55:08.846Z,4.50
2017-10-12T04:57:37.324Z,4.33
2017-10-12T05:00:05.597Z,5.67
2017-10-12T05:02:34.202Z,5.90
2017-10-12T05:05:02.838Z,4.47
2017-10-12T05:07:31.320Z,4.43
2017-10-12T05:10:00.592Z,6.43
2017-10-12T05:12:29.452Z,4.90
2017-10-12T05:14:58.705Z,4.23
2017-10-12T05:17:27.167Z,4.13
2017-10-12T05:19:55.648Z,4.80
2017-10-12T05:22:23.931Z,4.27
2017-10-12T05:24:53.279Z,4.10
2017-10-12T05:27:22.487Z,6.90
2017-10-12T05:29:50.939Z,5.17
2017-10-12T05:32:19.420Z,4.83
2017-10-12T05:34:47.955Z,5.47
2017-10-12T05:37:16.415Z,4.40
2017-10-12T05:39:45.639Z,4.10
2017-10-12T05:42:14.099Z,4.73
2017-10-12T05:44:42.559Z,4.80
2017-10-12T05:47:11.811Z,4.23
2017-10-12T05:49:40.349Z,9.10
2017-10-12T05:52:09.583Z,5.07
2017-10-12T05:54:37.864Z,4.90
2017-10-12T05:57:06.344Z,5.63
2017-10-12T05:59:34.791Z,5.23
2017-10-12T06:02:04.029Z,4.40
2017-10-12T06:04:32.306Z,3.53
2017-10-12T06:07:00.759Z,4.70
2017-10-12T06:09:29.816Z,3.57
2017-10-12T06:11:58.271Z,4.00
2017-10-12T06:14:26.562Z,4.10
2017-10-12T06:16:55.007Z,4.20
2017-10-12T06:19:23.522Z,4.20
2017-10-12T06:21:51.975Z,3.73
2017-10-12T06:24:20.448Z,4.33
2017-10-12T06:26:49.679Z,4.53
2017-10-12T06:29:18.131Z,6.33
2017-10-12T06:31:46.740Z,4.23
2017-10-12T06:34:15.200Z,6.00
2017-10-12T06:36:44.455Z,4.50
2017-10-12T06:39:13.075Z,5.80
2017-10-12T06:41:41.768Z,3.77
2017-10-12T06:44:11.008Z,4.30
2017-10-12T06:46:39.862Z,5.57
2017-10-12T06:49:08.780Z,6.27
2017-10-12T06:51:37.280Z,7.83
2017-10-12T06:54:05.410Z,6.43
2017-10-12T06:56:34.716Z,4.57
2017-10-12T06:59:03.949Z,4.33
2017-10-12T07:01:33.239Z,7.43
2017-10-12T07:04:01.526Z,4.50
2017-10-12T07:06:29.997Z,4.00
2017-10-12T07:08:58.464Z,5.10
2017-10-12T07:11:26.972Z,5.13
2017-10-12T07:13:55.421Z,4.07
2017-10-12T07:16:24.663Z,22.03
2017-10-12T07:18:53.117Z,5.43
2017-10-12T07:21:21.571Z,4.03
2017-10-12T07:23:50.816Z,4.70
2017-10-12T07:26:19.099Z,4.53
2017-10-12T07:28:47.387Z,4.80
2017-10-12T07:31:15.857Z,4.63
2017-10-12T07:33:44.339Z,10.50
2017-10-12T07:36:13.440Z,6.07
2017-10-12T07:38:41.918Z,4.17
2017-10-12T07:41:10.391Z,5.10
2017-10-12T07:43:38.861Z,10.73
2017-10-12T07:46:07.372Z,4.87
2017-10-12T07:48:35.855Z,4.70
2017-10-12T07:51:04.335Z,4.97
2017-10-12T07:53:32.806Z,6.73
2017-10-12T07:56:01.276Z,4.63
2017-10-12T07:58:29.547Z,8.37
2017-10-12T08:00:58.011Z,4.70
2017-10-12T08:03:27.265Z,5.37
2017-10-12T08:05:55.759Z,4.80
2017-10-12T08:08:24.211Z,6.03
2017-10-12T08:10:52.755Z,5.80
2017-10-12T08:13:22.000Z,6.50
2017-10-12T08:15:50.480Z,7.63
2017-10-12T08:18:18.947Z,7.43
2017-10-12T08:20:47.440Z,10.47
2017-10-12T08:23:15.899Z,5.23
2017-10-12T08:25:44.967Z,4.47
2017-10-12T08:28:13.520Z,5.67
2017-10-12T08:30:41.987Z,9.27
2017-10-12T08:33:10.472Z,7.97
2017-10-12T08:35:38.937Z,5.13
2017-10-12T08:38:07.514Z,4.83
2017-10-12T08:40:35.966Z,5.50
2017-10-12T08:43:04.456Z,10.63
2017-10-12T08:45:32.909Z,11.20
2017-10-12T08:48:01.457Z,7.33
2017-10-12T08:50:29.937Z,5.00
2017-10-12T08:52:58.399Z,3.93
2017-10-12T08:55:27.637Z,6.53
2017-10-12T08:57:56.103Z,4.70
2017-10-12T09:00:24.560Z,4.23
2017-10-12T09:02:53.793Z,4.17
2017-10-12T09:05:22.487Z,6.53
2017-10-12T09:07:50.755Z,4.97
2017-10-12T09:10:19.224Z,5.43
2017-10-12T09:12:47.727Z,5.13
2017-10-12T09:15:16.213Z,4.50
2017-10-12T09:17:44.923Z,4.07
2017-10-12T09:20:13.589Z,3.87
2017-10-12T09:22:42.043Z,3.73
2017-10-12T09:25:11.268Z,9.73
2017-10-12T09:27:39.408Z,5.83
2017-10-12T09:30:08.695Z,4.60
2017-10-12T09:32:37.183Z,3.53
2017-10-12T09:35:06.464Z,6.37
2017-10-12T09:37:34.695Z,5.80
2017-10-12T09:40:03.148Z,3.83
2017-10-12T09:42:31.627Z,3.60
2017-10-12T09:45:00.519Z,4.30
2017-10-12T09:47:29.453Z,7.83
2017-10-12T09:49:57.927Z,5.23
2017-10-12T09:52:26.039Z,4.60
2017-10-12T09:54:54.517Z,6.33
2017-10-12T09:57:23.136Z,4.10
2017-10-12T09:59:52.030Z,8.00
2017-10-12T10:02:20.913Z,5.30
2017-10-12T10:04:49.383Z,6.47
2017-10-12T10:07:17.840Z,3.00
2017-10-12T10:09:46.406Z,5.63
2017-10-12T10:12:14.880Z,6.87
2017-10-12T10:14:43.336Z,3.30
2017-10-12T10:17:12.576Z,4.20
2017-10-12T10:19:41.215Z,6.03
2017-10-12T10:22:10.467Z,4.00
2017-10-12T10:24:39.007Z,5.57
2017-10-12T10:27:08.249Z,3.70
2017-10-12T10:29:36.699Z,5.70
2017-10-12T10:32:05.228Z,4.13
2017-10-12T10:34:33.712Z,4.10
2017-10-12T10:37:02.176Z,6.63
2017-10-12T10:39:30.660Z,3.00
2017-10-12T10:41:59.129Z,3.10
2017-10-12T10:44:27.634Z,9.47
2017-10-12T10:46:56.103Z,5.67
2017-10-12T10:49:24.592Z,4.07
2017-10-12T10:51:53.051Z,4.97
2017-10-12T10:54:21.543Z,4.53
2017-10-12T10:56:50.044Z,3.77
2017-10-12T10:59:19.564Z,5.07
2017-10-12T11:01:48.016Z,5.63
2017-10-12T11:04:16.503Z,5.10
2017-10-12T11:06:44.996Z,3.03
2017-10-12T11:09:13.448Z,3.47
2017-10-12T11:11:42.064Z,3.17
2017-10-12T11:14:11.532Z,3.33
2017-10-12T11:16:40.863Z,3.10
2017-10-12T11:19:09.352Z,3.47
2017-10-12T11:21:37.835Z,3.73
2017-10-12T11:24:06.312Z,5.03
2017-10-12T11:26:34.782Z,4.00
2017-10-12T11:29:03.338Z,4.40
2017-10-12T11:31:32.572Z,4.73
2017-10-12T11:34:01.064Z,3.50
2017-10-12T11:36:29.535Z,8.47
2017-10-12T11:38:57.996Z,4.00
2017-10-12T11:41:27.244Z,3.10
2017-10-12T11:43:55.735Z,3.03
2017-10-12T11:46:24.200Z,3.83
2017-10-12T11:48:52.680Z,3.50
2017-10-12T11:51:21.162Z,2.70
2017-10-12T11:53:49.631Z,5.73
2017-10-12T11:56:18.120Z,3.20
2017-10-12T11:58:46.575Z,3.83
2017-10-12T12:01:15.048Z,3.23
2017-10-12T12:03:44.385Z,2.40
2017-10-12T12:06:12.847Z,6.77
2017-10-12T12:08:41.318Z,3.30
2017-10-12T12:11:10.554Z,3.00
2017-10-12T12:13:39.125Z,6.27
2017-10-12T12:16:07.611Z,3.90
2017-10-12T12:18:36.087Z,4.37
2017-10-12T12:21:04.563Z,3.00
2017-10-12T12:23:33.053Z,2.27
2017-10-12T12:26:01.925Z,3.70
2017-10-12T12:28:31.195Z,2.53
2017-10-12T12:30:59.747Z,2.90
2017-10-12T12:33:28.228Z,2.80
2017-10-12T12:35:56.723Z,2.90
2017-10-12T12:38:25.168Z,3.03
2017-10-12T12:40:53.875Z,3.43
2017-10-12T12:43:24.107Z,2.97
2017-10-12T12:45:52.591Z,7.37
2017-10-12T12:48:21.102Z,3.53
2017-10-12T12:50:49.699Z,6.33
2017-10-12T12:53:18.168Z,3.17
2017-10-12T12:55:46.646Z,2.47
2017-10-12T12:58:15.218Z,4.33
2017-10-12T13:00:43.681Z,4.03
2017-10-12T13:03:12.243Z,2.60
2017-10-12T13:05:40.707Z,3.67
2017-10-12T13:08:09.947Z,3.00
2017-10-12T13:10:38.396Z,4.60
2017-10-12T13:13:07.749Z,2.90
2017-10-12T13:15:35.856Z,1.73
2017-10-12T13:18:03.996Z,3.77
2017-10-12T13:20:32.473Z,2.30
2017-10-12T13:23:00.758Z,4.20
2017-10-12T13:25:29.239Z,5.30
2017-10-12T13:27:57.819Z,3.17
2017-10-12T13:30:26.303Z,2.70
2017-10-12T13:32:54.765Z,2.33
2017-10-12T13:35:23.276Z,2.47
2017-10-12T13:37:51.738Z,8.03
2017-10-12T13:40:20.209Z,1.93
2017-10-12T13:42:48.680Z,2.50
2017-10-12T13:45:17.159Z,1.67
2017-10-12T13:47:46.080Z,1.70
2017-10-12T13:50:14.574Z,2.73
2017-10-12T13:52:43.243Z,1.90
2017-10-12T13:55:11.703Z,3.17
2017-10-12T13:57:40.964Z,3.00
2017-10-12T14:00:09.511Z,2.17
2017-10-12T14:02:37.990Z,1.97
2017-10-12T14:05:06.464Z,2.97
2017-10-12T14:07:34.960Z,3.87
2017-10-12T14:10:03.445Z,2.57
2017-10-12T14:12:31.738Z,2.70
2017-10-12T14:15:00.031Z,4.60
2017-10-12T14:17:28.336Z,1.83
2017-10-12T14:19:57.416Z,2.70
2017-10-12T14:22:26.015Z,7.20
2017-10-12T14:24:55.364Z,2.40
2017-10-12T14:27:24.043Z,2.40
2017-10-12T14:29:52.527Z,2.00
2017-10-12T14:32:21.009Z,4.63
2017-10-12T14:34:49.479Z,2.00
2017-10-12T14:37:17.971Z,2.07
2017-10-12T14:39:46.433Z,3.70
2017-10-12T14:42:15.497Z,7.23
2017-10-12T14:44:43.971Z,2.13
2017-10-12T14:47:12.875Z,2.80
2017-10-12T14:49:41.344Z,3.17
2017-10-12T14:52:10.202Z,1.80
2017-10-12T14:54:38.712Z,1.70
2017-10-12T14:57:07.216Z,2.10
2017-10-12T14:59:35.511Z,7.70
2017-10-12T15:02:04.551Z,2.80
2017-10-12T15:04:32.861Z,2.00
2017-10-12T15:07:02.652Z,2.47
2017-10-12T15:09:31.154Z,1.83
2017-10-12T15:11:59.634Z,2.03
2017-10-12T15:14:28.112Z,1.90
2017-10-12T15:16:56.584Z,2.10
2017-10-12T15:19:25.051Z,2.77
2017-10-12T15:21:53.799Z,2.30
2017-10-12T15:24:23.042Z,2.77
2017-10-12T15:26:51.350Z,2.10
2017-10-12T15:29:20.022Z,2.47
2017-10-12T15:31:48.504Z,2.93
2017-10-12T15:34:17.123Z,4.20
2017-10-12T15:36:46.005Z,3.73
2017-10-12T15:39:14.478Z,3.90
2017-10-12T15:41:42.959Z,2.80
2017-10-12T15:44:11.435Z,2.20
2017-10-12T15:46:39.746Z,3.50
2017-10-12T15:49:08.993Z,2.97
2017-10-12T15:51:37.477Z,2.60
2017-10-12T15:54:05.958Z,2.00
2017-10-12T15:56:34.419Z,3.50
2017-10-12T15:59:02.915Z,1.97
2017-10-12T16:01:31.405Z,3.70
2017-10-12T16:03:59.931Z,3.57
2017-10-12T16:06:28.435Z,2.60
2017-10-12T16:08:57.759Z,3.30
2017-10-12T16:11:26.121Z,5.77
2017-10-12T16:13:55.211Z,4.47
2017-10-12T16:16:23.831Z,4.53
2017-10-12T16:18:52.308Z,2.40
2017-10-12T16:21:21.206Z,3.23
2017-10-12T16:23:49.697Z,4.10
2017-10-12T16:26:18.928Z,8.10
2017-10-12T16:28:47.871Z,4.17
2017-10-12T16:31:16.375Z,4.03
2017-10-12T16:33:44.892Z,3.40
2017-10-12T16:36:13.376Z,5.13
2017-10-12T16:38:41.923Z,3.60
2017-10-12T16:41:10.218Z,5.83
2017-10-12T16:43:39.096Z,4.50
2017-10-12T16:46:07.647Z,3.20
2017-10-12T16:48:36.872Z,2.70
2017-10-12T16:51:05.378Z,5.40
2017-10-12T16:53:34.328Z,4.33
2017-10-12T16:56:03.213Z,5.80
2017-10-12T16:58:31.955Z,8.03
2017-10-12T17:01:01.323Z,3.17
2017-10-12T17:03:30.236Z,3.37
2017-10-12T17:05:58.732Z,4.00
2017-10-12T17:08:27.011Z,6.80
2017-10-12T17:10:56.073Z,3.37
2017-10-12T17:13:24.806Z,3.60
2017-10-12T17:15:54.082Z,4.83
2017-10-12T17:18:22.971Z,6.63
2017-10-12T17:20:52.236Z,4.40
2017-10-12T17:28:19.091Z,3.70
2017-10-12T17:30:47.988Z,8.13
2017-10-12T17:33:16.678Z,4.47
2017-10-12T17:35:45.392Z,5.07
2017-10-12T17:38:14.467Z,14.60
2017-10-12T17:40:44.093Z,5.23
2017-10-12T17:43:13.004Z,4.73
2017-10-12T17:45:41.904Z,7.53
2017-10-12T17:48:11.167Z,9.93
2017-10-12T17:50:40.411Z,7.80
2017-10-12T17:53:09.289Z,5.63
2017-10-12T17:55:37.985Z,7.13
2017-10-12T17:58:07.234Z,8.77
2017-10-12T18:00:36.137Z,4.50
2017-10-12T18:03:05.011Z,4.80
2017-10-12T18:05:34.295Z,6.10
2017-10-12T18:08:03.207Z,7.47
2017-10-12T18:10:32.157Z,7.70
2017-10-12T18:13:01.020Z,5.10
2017-10-12T18:15:29.896Z,5.67
2017-10-12T18:17:59.135Z,6.67
2017-10-12T18:20:28.072Z,7.03
2017-10-12T18:22:56.976Z,11.20
2017-10-12T18:25:25.846Z,4.40
2017-10-12T18:27:55.129Z,4.57
2017-10-12T18:30:24.003Z,6.87
2017-10-12T18:32:52.868Z,6.13
2017-10-12T18:35:22.100Z,8.07
2017-10-12T18:37:50.981Z,4.70
2017-10-12T18:40:19.901Z,8.17
2017-10-12T18:42:49.211Z,8.17
2017-10-12T18:45:18.359Z,5.53
2017-10-12T18:47:47.794Z,4.30
2017-10-12T18:50:17.129Z,4.93
2017-10-12T18:52:46.289Z,5.60
2017-10-12T18:55:15.849Z,5.10
2017-10-12T18:57:45.394Z,6.13
2017-10-12T19:00:14.541Z,6.77
2017-10-12T19:02:43.642Z,8.50
2017-10-12T19:05:12.383Z,7.17
2017-10-12T19:10:10.311Z,8.17
2017-10-12T19:12:39.511Z,12.83
2017-10-12T19:15:08.312Z,5.37
2017-10-12T19:17:37.491Z,5.37
2017-10-12T19:20:06.860Z,11.20
2017-10-12T19:22:36.056Z,6.20
2017-10-12T19:25:05.215Z,6.63
2017-10-12T19:27:34.394Z,5.37
2017-10-12T19:30:03.942Z,4.67
2017-10-12T19:32:32.424Z,5.90
2017-10-12T19:35:01.165Z,5.63
2017-10-12T19:37:30.689Z,9.63
2017-10-12T19:40:00.248Z,6.70
2017-10-12T19:42:29.298Z,5.70
2017-10-12T19:44:58.932Z,7.90
2017-10-12T19:47:28.152Z,6.07
2017-10-12T19:49:57.214Z,6.10
2017-10-12T19:52:26.515Z,5.27
2017-10-12T19:54:55.411Z,4.77
2017-10-12T19:57:24.322Z,10.37
2017-10-12T19:59:53.317Z,6.80
2017-10-12T20:02:22.193Z,10.43
2017-10-12T20:04:51.476Z,6.70
2017-10-12T20:07:20.349Z,7.37
2017-10-12T20:09:49.260Z,5.90
2017-10-12T20:12:18.160Z,6.00
2017-10-12T20:14:47.041Z,6.10
2017-10-12T20:17:16.327Z,13.43
2017-10-12T20:19:45.295Z,6.60
2017-10-12T20:22:14.176Z,6.87
2017-10-12T20:24:43.051Z,6.33
2017-10-12T20:27:11.946Z,10.03
2017-10-12T20:29:40.832Z,7.00
2017-10-12T20:32:10.087Z,9.20
2017-10-12T20:34:38.977Z,11.53
2017-10-12T20:37:08.237Z,7.03
2017-10-12T20:39:37.113Z,6.43
2017-10-12T20:44:34.960Z,6.90
2017-10-12T20:47:04.308Z,6.00
2017-10-12T20:49:33.592Z,7.27
2017-10-12T20:52:02.474Z,5.50
2017-10-12T20:54:31.720Z,7.40
2017-10-12T20:57:00.959Z,6.10
2017-10-12T20:59:29.665Z,7.03
2017-10-12T21:01:58.572Z,8.93
2017-10-12T21:04:27.475Z,6.03
2017-10-12T21:06:56.378Z,6.87
2017-10-12T21:09:25.255Z,7.13
2017-10-12T21:11:54.150Z,9.10
2017-10-12T21:14:23.031Z,11.50
2017-10-12T21:16:52.251Z,7.37
2017-10-12T21:19:21.131Z,9.30
2017-10-12T21:21:50.023Z,12.40
2017-10-12T21:24:18.961Z,11.43
2017-10-12T21:26:47.855Z,8.80
2017-10-12T21:29:17.100Z,8.03
2017-10-12T21:31:45.988Z,8.90
2017-10-12T21:34:14.863Z,9.77
2017-10-12T21:36:43.746Z,10.67
2017-10-12T21:39:12.973Z,12.73
2017-10-12T21:41:41.873Z,9.03
2017-10-12T21:44:11.093Z,7.10
2017-10-12T21:46:39.678Z,8.83
2017-10-12T21:49:08.159Z,10.90
2017-10-12T21:51:36.751Z,10.53
2017-10-12T21:54:05.279Z,6.90
2017-10-12T21:56:33.780Z,7.03
2017-10-12T21:59:03.031Z,9.07
2017-10-12T22:01:31.520Z,7.97
2017-10-12T22:04:00.106Z,7.53
2017-10-12T22:06:28.588Z,6.73
2017-10-12T22:08:57.095Z,11.20
2017-10-12T22:11:25.584Z,10.60
2017-10-12T22:13:55.574Z,7.90
2017-10-12T22:16:25.058Z,11.27
2017-10-12T22:18:53.523Z,8.37
2017-10-12T22:21:22.766Z,7.43
2017-10-12T22:23:51.360Z,6.77
2017-10-12T22:26:19.823Z,9.50
2017-10-12T22:28:48.295Z,6.37
2017-10-12T22:31:16.739Z,7.80
2017-10-12T22:33:45.980Z,10.00
2017-10-12T22:36:14.558Z,8.50
2017-10-12T22:38:43.051Z,7.47
2017-10-12T22:41:10.812Z,10.20
2017-10-12T22:43:39.280Z,8.17
2017-10-12T22:46:07.911Z,6.97
2017-10-12T22:48:36.380Z,7.10
2017-10-12T22:51:05.041Z,8.57
2017-10-12T22:53:33.499Z,6.60
2017-10-12T22:56:02.842Z,6.03
2017-10-12T22:58:31.303Z,6.70
2017-10-12T23:00:59.812Z,6.30
2017-10-12T23:03:29.284Z,6.40
2017-10-12T23:05:57.735Z,5.50
2017-10-12T23:08:26.983Z,6.37
2017-10-12T23:10:55.473Z,6.57
2017-10-12T23:13:23.931Z,6.27
2017-10-12T23:15:52.803Z,7.47
2017-10-12T23:18:22.150Z,5.93
2017-10-12T23:20:50.624Z,8.47
2017-10-12T23:23:19.099Z,7.77
2017-10-12T23:25:47.601Z,7.10
2017-10-12T23:28:16.097Z,6.00
2017-10-12T23:30:44.557Z,7.83
2017-10-12T23:33:13.047Z,6.30
2017-10-12T23:35:41.535Z,7.77
2017-10-12T23:38:10.098Z,6.17
2017-10-12T23:40:38.577Z,8.00
2017-10-12T23:43:07.043Z,5.93
2017-10-12T23:45:35.965Z,6.37
2017-10-12T23:48:04.566Z,10.83
2017-10-12T23:50:33.039Z,7.27
2017-10-12T23:53:01.527Z,8.23
2017-10-12T23:55:29.995Z,6.47
2017-10-12T23:57:58.468Z,8.70
